Time;durP1;ratioP1;P1;durP2;ratioP2;P2;SDS_P1;SDS_P2;PMS_P1;PMS_P2;Temp;Humidity;BMP_temperature;BMP_pressure;BME280_temperature;BME280_humidity;BME280_pressure;Samples;Min_cycle;Max_cycle;Signal;HPM_P1;HPM_P2
2021/07/18 00:00:31;;;;;;;21.73;19.93;;;24.10;99.90;;;;;;3535318;40;20494;-57
2021/07/18 00:02:59;;;;;;;21.83;19.90;;;24.10;99.90;;;;;;3545585;40;20481;-57
2021/07/18 00:05:26;;;;;;;22.47;20.47;;;24.10;99.90;;;;;;3545558;40;20462;-56
2021/07/18 00:07:53;;;;;;;22.33;20.60;;;24.10;99.90;;;;;;3546178;40;20454;-57
2021/07/18 00:10:27;;;;;;;23.00;20.93;;;24.10;99.90;;;;;;3545801;40;20551;-57
2021/07/18 00:12:54;;;;;;;20.93;19.23;;;24.10;99.90;;;;;;3536164;40;21002;-57
2021/07/18 00:15:21;;;;;;;21.53;19.73;;;24.10;99.90;;;;;;3545102;40;20481;-58
2021/07/18 00:17:48;;;;;;;22.23;20.43;;;24.10;99.90;;;;;;3535741;40;21213;-56
2021/07/18 00:20:16;;;;;;;23.00;21.00;;;24.10;99.90;;;;;;3544668;40;20726;-56
2021/07/18 00:22:44;;;;;;;22.40;20.50;;;24.10;99.90;;;;;;3536014;40;20451;-58
2021/07/18 00:25:12;;;;;;;19.90;18.20;;;24.10;99.90;;;;;;3545529;40;20481;-57
2021/07/18 00:27:40;;;;;;;20.13;18.53;;;24.10;99.90;;;;;;3545200;40;20465;-58
2021/07/18 00:30:10;;;;;;;21.90;20.10;;;24.10;99.90;;;;;;3544098;40;20883;-57
2021/07/18 00:32:37;;;;;;;23.53;21.53;;;24.10;99.90;;;;;;3545269;40;20839;-57
2021/07/18 00:35:07;;;;;;;22.33;20.30;;;24.10;99.90;;;;;;3545325;40;20468;-57
2021/07/18 00:37:34;;;;;;;20.60;18.93;;;24.10;99.90;;;;;;3544107;40;20485;-57
2021/07/18 00:40:02;;;;;;;21.10;19.40;;;24.10;99.90;;;;;;3544433;40;20485;-57
2021/07/18 00:42:29;;;;;;;22.50;20.60;;;24.10;99.90;;;;;;3545270;40;20540;-58
2021/07/18 00:44:58;;;;;;;21.10;19.30;;;24.10;99.90;;;;;;3545454;40;20460;-56
2021/07/18 00:47:27;;;;;;;21.17;19.50;;;24.10;99.90;;;;;;3545215;40;20490;-57
2021/07/18 00:49:54;;;;;;;22.10;20.20;;;24.10;99.90;;;;;;3545347;40;20931;-57
2021/07/18 00:52:21;;;;;;;21.10;19.37;;;24.10;99.90;;;;;;3546886;40;20479;-57
2021/07/18 00:54:49;;;;;;;21.63;19.83;;;24.10;99.90;;;;;;3546843;40;20476;-58
2021/07/18 00:57:17;;;;;;;22.23;20.40;;;24.10;99.90;;;;;;3545378;40;20466;-57
2021/07/18 00:59:45;;;;;;;21.90;19.97;;;24.10;99.90;;;;;;3546375;40;20466;-58
2021/07/18 01:02:14;;;;;;;23.20;21.20;;;24.10;99.90;;;;;;3548444;40;20465;-57
2021/07/18 01:04:42;;;;;;;21.70;19.90;;;24.20;99.90;;;;;;3547560;40;20453;-57
2021/07/18 01:07:10;;;;;;;20.83;19.17;;;24.10;99.90;;;;;;3546152;40;20478;-57
2021/07/18 01:09:38;;;;;;;22.27;20.57;;;24.10;99.90;;;;;;3545757;40;20464;-54
2021/07/18 01:12:05;;;;;;;22.03;20.23;;;24.10;99.90;;;;;;3546137;40;20458;-57
2021/07/18 01:14:33;;;;;;;22.07;20.27;;;24.10;99.90;;;;;;3534459;40;20465;-56
2021/07/18 01:17:00;;;;;;;20.57;18.90;;;24.10;99.90;;;;;;3541483;40;20986;-57
2021/07/18 01:19:33;;;;;;;22.00;20.10;;;24.10;99.90;;;;;;3546866;40;20472;-57
2021/07/18 01:22:03;;;;;;;20.33;18.83;;;24.10;99.90;;;;;;3545770;40;20722;-57
2021/07/18 01:24:32;;;;;;;20.10;18.50;;;24.10;99.90;;;;;;3545638;40;21064;-58
2021/07/18 01:27:00;;;;;;;21.40;19.70;;;24.10;99.90;;;;;;3546246;40;21068;-57
2021/07/18 01:29:28;;;;;;;20.70;18.90;;;24.10;99.90;;;;;;3546728;40;20849;-56
2021/07/18 01:31:55;;;;;;;20.33;18.63;;;24.10;99.90;;;;;;3546041;40;20474;-57
2021/07/18 01:34:23;;;;;;;20.57;18.87;;;24.10;99.90;;;;;;3545385;40;20450;-57
2021/07/18 01:36:51;;;;;;;19.10;17.60;;;24.10;99.90;;;;;;3546126;40;20460;-58
2021/07/18 01:39:20;;;;;;;19.43;17.90;;;24.10;99.90;;;;;;3546107;40;20466;-57
2021/07/18 01:41:49;;;;;;;19.67;18.07;;;24.10;99.90;;;;;;3552629;40;20466;-56
2021/07/18 01:44:17;;;;;;;18.63;17.17;;;24.10;99.90;;;;;;3547179;40;20704;-57
2021/07/18 01:46:45;;;;;;;19.80;18.17;;;24.10;99.90;;;;;;3546430;40;20474;-56
2021/07/18 01:49:12;;;;;;;20.00;18.37;;;24.10;99.90;;;;;;3552410;40;20550;-56
2021/07/18 01:51:39;;;;;;;19.73;18.13;;;24.10;99.90;;;;;;3545011;40;20442;-56
2021/07/18 01:54:08;;;;;;;19.03;17.40;;;24.10;99.90;;;;;;3546473;40;20784;-56
2021/07/18 01:56:37;;;;;;;20.50;18.70;;;24.10;99.90;;;;;;3547441;40;20458;-57
2021/07/18 01:59:05;;;;;;;19.03;17.53;;;24.10;99.90;;;;;;3545907;40;20465;-56
2021/07/18 02:01:33;;;;;;;19.50;17.83;;;24.10;99.90;;;;;;3546194;40;20466;-57
2021/07/18 02:04:02;;;;;;;18.17;16.67;;;24.10;99.90;;;;;;3546354;40;20462;-57
2021/07/18 02:06:32;;;;;;;16.47;15.17;;;24.10;99.90;;;;;;3546003;40;20468;-56
2021/07/18 02:09:01;;;;;;;19.73;18.13;;;24.10;99.90;;;;;;3545960;40;20477;-55
2021/07/18 02:11:29;;;;;;;19.27;17.77;;;24.10;99.90;;;;;;3545814;40;20462;-57
2021/07/18 02:14:02;;;;;;;20.10;18.50;;;24.10;99.90;;;;;;3545955;40;20484;-56
2021/07/18 02:16:30;;;;;;;18.60;17.10;;;24.10;99.90;;;;;;3546332;40;20509;-54
2021/07/18 02:19:05;;;;;;;17.17;15.57;;;24.10;99.90;;;;;;3546384;40;20469;-56
2021/07/18 02:21:32;;;;;;;17.17;15.87;;;24.10;99.90;;;;;;3545158;40;20472;-57
2021/07/18 02:24:00;;;;;;;19.03;17.43;;;24.10;99.90;;;;;;3545312;40;20719;-57
2021/07/18 02:26:28;;;;;;;18.90;17.40;;;24.10;99.90;;;;;;3546564;40;20442;-56
2021/07/18 02:28:58;;;;;;;17.87;16.43;;;24.10;99.90;;;;;;3552054;40;20873;-56
2021/07/18 02:31:25;;;;;;;16.97;15.67;;;24.10;99.90;;;;;;3546113;40;20513;-56
2021/07/18 02:33:54;;;;;;;17.97;16.57;;;24.10;99.90;;;;;;3546590;40;20454;-56
2021/07/18 02:36:21;;;;;;;18.90;17.30;;;24.10;99.90;;;;;;3546574;40;20718;-57
2021/07/18 02:38:49;;;;;;;19.47;17.90;;;24.10;99.90;;;;;;3545726;40;20465;-57
2021/07/18 02:41:16;;;;;;;16.40;15.20;;;24.10;99.90;;;;;;3546126;40;21055;-56
2021/07/18 02:43:43;;;;;;;17.77;16.47;;;24.10;99.90;;;;;;3545868;40;20505;-57
2021/07/18 02:46:12;;;;;;;16.70;15.37;;;24.10;99.90;;;;;;3545436;40;20482;-56
2021/07/18 02:48:39;;;;;;;19.03;17.57;;;24.10;99.90;;;;;;3545142;40;20493;-55
2021/07/18 02:51:06;;;;;;;18.60;17.00;;;24.10;99.90;;;;;;3545653;40;20447;-56
2021/07/18 02:53:34;;;;;;;17.33;15.83;;;24.10;99.90;;;;;;3546347;40;20505;-56
2021/07/18 02:56:01;;;;;;;16.20;15.00;;;24.10;99.90;;;;;;3546237;40;20814;-56
2021/07/18 02:58:29;;;;;;;16.93;15.67;;;24.10;99.90;;;;;;3551178;40;20474;-56
2021/07/18 03:00:56;;;;;;;19.13;17.50;;;24.10;99.90;;;;;;3545441;40;20473;-56
2021/07/18 03:03:25;;;;;;;18.90;17.30;;;24.10;99.90;;;;;;3545465;40;20458;-54
2021/07/18 03:05:52;;;;;;;17.23;15.80;;;24.10;99.90;;;;;;3545859;40;20458;-56
2021/07/18 03:08:19;;;;;;;16.00;14.80;;;24.10;99.90;;;;;;3545890;40;20469;-56
2021/07/18 03:10:46;;;;;;;17.80;16.43;;;24.10;99.90;;;;;;3547741;40;20717;-57
2021/07/18 03:13:14;;;;;;;15.53;14.37;;;24.10;99.90;;;;;;3547702;40;20454;-57
2021/07/18 03:15:41;;;;;;;16.10;14.83;;;24.10;99.90;;;;;;3546582;40;20461;-56
2021/07/18 03:18:08;;;;;;;16.00;14.90;;;24.10;99.90;;;;;;3536134;40;20486;-55
2021/07/18 03:20:37;;;;;;;15.57;14.37;;;24.10;99.90;;;;;;3545461;40;20473;-57
2021/07/18 03:23:05;;;;;;;16.83;15.27;;;24.10;99.90;;;;;;3547090;40;20466;-57
2021/07/18 03:25:32;;;;;;;15.90;14.87;;;24.10;99.90;;;;;;3546577;40;20923;-57
2021/07/18 03:27:59;;;;;;;16.73;15.43;;;24.10;99.90;;;;;;3542553;40;20449;-56
2021/07/18 03:30:26;;;;;;;15.20;14.10;;;24.10;99.90;;;;;;3546655;40;20478;-56
2021/07/18 03:32:55;;;;;;;15.10;14.10;;;24.10;99.90;;;;;;3547314;40;20925;-56
2021/07/18 03:35:22;;;;;;;15.00;14.00;;;24.10;99.90;;;;;;3547210;40;20445;-56
2021/07/18 03:37:51;;;;;;;15.33;14.30;;;24.10;99.90;;;;;;3546939;40;20469;-56
2021/07/18 03:40:18;;;;;;;16.27;15.03;;;24.10;99.90;;;;;;3547241;40;20456;-56
2021/07/18 03:42:46;;;;;;;15.17;14.07;;;24.10;99.90;;;;;;3547270;40;20469;-54
2021/07/18 03:45:15;;;;;;;17.43;16.10;;;24.10;99.90;;;;;;3546240;40;20466;-55
2021/07/18 03:47:43;;;;;;;16.27;14.97;;;24.10;99.90;;;;;;3544030;40;20482;-56
2021/07/18 03:50:11;;;;;;;15.50;14.40;;;24.10;99.90;;;;;;3546409;40;20442;-57
2021/07/18 03:52:38;;;;;;;15.90;14.70;;;24.10;99.90;;;;;;3546996;40;20442;-57
2021/07/18 03:55:08;;;;;;;15.93;14.70;;;24.10;99.90;;;;;;3546439;40;20470;-55
2021/07/18 03:57:35;;;;;;;14.37;13.37;;;24.10;99.90;;;;;;3546560;40;20485;-56
2021/07/18 04:00:04;;;;;;;15.00;13.90;;;24.10;99.90;;;;;;3547111;40;20457;-55
2021/07/18 04:02:32;;;;;;;16.40;15.20;;;24.10;99.90;;;;;;3546666;40;20474;-57
2021/07/18 04:04:59;;;;;;;14.67;13.60;;;24.10;99.90;;;;;;3546919;40;20458;-56
2021/07/18 04:07:32;;;;;;;14.40;13.40;;;24.10;99.90;;;;;;3546642;40;20458;-55
2021/07/18 04:10:00;;;;;;;13.70;12.70;;;24.10;99.90;;;;;;3546940;40;21150;-54
2021/07/18 04:12:29;;;;;;;14.03;13.07;;;24.10;99.90;;;;;;3547065;40;20461;-57
2021/07/18 04:14:56;;;;;;;14.53;13.50;;;24.10;99.90;;;;;;3546900;40;20457;-55
2021/07/18 04:17:24;;;;;;;14.60;13.60;;;24.10;99.90;;;;;;3546671;40;20474;-56
2021/07/18 04:19:51;;;;;;;13.30;12.30;;;24.10;99.90;;;;;;3546341;40;20470;-57
2021/07/18 04:22:19;;;;;;;14.50;13.50;;;24.10;99.90;;;;;;3546318;40;20465;-57
2021/07/18 04:24:46;;;;;;;13.20;12.27;;;24.10;99.90;;;;;;3546744;40;20449;-57
2021/07/18 04:27:13;;;;;;;14.50;13.40;;;24.10;99.90;;;;;;3547141;40;20465;-56
2021/07/18 04:29:42;;;;;;;14.33;13.33;;;24.10;99.90;;;;;;3545915;40;20465;-56
2021/07/18 04:32:10;;;;;;;12.90;11.90;;;24.10;99.90;;;;;;3546383;40;20883;-57
2021/07/18 04:34:41;;;;;;;14.93;13.93;;;24.10;99.90;;;;;;3546058;40;20446;-55
2021/07/18 04:37:08;;;;;;;14.40;13.40;;;24.10;99.90;;;;;;3546243;40;20465;-57
2021/07/18 04:39:37;;;;;;;14.80;13.60;;;24.10;99.90;;;;;;3546798;40;20493;-57
2021/07/18 04:42:06;;;;;;;13.30;12.40;;;24.10;99.90;;;;;;3548321;40;20469;-54
2021/07/18 04:44:33;;;;;;;12.90;12.10;;;24.10;99.90;;;;;;3547191;40;20712;-56
2021/07/18 04:47:02;;;;;;;12.90;12.10;;;24.10;99.90;;;;;;3543456;40;20489;-58
2021/07/18 04:49:29;;;;;;;14.00;13.00;;;24.10;99.90;;;;;;3547256;40;20493;-56
2021/07/18 04:51:57;;;;;;;13.50;12.70;;;24.10;99.90;;;;;;3547183;40;20456;-53
2021/07/18 04:54:24;;;;;;;13.33;12.53;;;24.10;99.90;;;;;;3545140;40;20443;-55
2021/07/18 04:56:52;;;;;;;14.17;13.27;;;24.10;99.90;;;;;;3545560;40;20466;-57
2021/07/18 04:59:19;;;;;;;13.47;12.57;;;24.10;99.90;;;;;;3546851;40;20466;-57
2021/07/18 05:01:47;;;;;;;14.47;13.47;;;24.10;99.90;;;;;;3545895;40;20750;-55
2021/07/18 05:04:15;;;;;;;13.70;12.80;;;24.10;99.90;;;;;;3546204;40;20442;-58
2021/07/18 05:06:42;;;;;;;13.73;12.73;;;24.10;99.90;;;;;;3546260;40;20851;-56
2021/07/18 05:09:10;;;;;;;12.80;11.93;;;24.10;99.90;;;;;;3546885;40;20499;-53
2021/07/18 05:11:37;;;;;;;13.23;12.27;;;24.10;99.90;;;;;;3550574;40;20467;-57
2021/07/18 05:14:05;;;;;;;12.33;11.53;;;24.10;99.90;;;;;;3535427;40;20462;-57
2021/07/18 05:16:32;;;;;;;11.60;10.87;;;24.10;99.90;;;;;;3543802;40;20479;-57
2021/07/18 05:18:59;;;;;;;12.67;11.73;;;24.10;99.90;;;;;;3550594;40;20556;-57
2021/07/18 05:21:28;;;;;;;12.83;11.93;;;24.10;99.90;;;;;;3543282;40;21006;-57
2021/07/18 05:23:55;;;;;;;11.60;10.90;;;24.10;99.90;;;;;;3552165;40;20457;-56
2021/07/18 05:26:22;;;;;;;11.87;10.97;;;24.10;99.90;;;;;;3545862;40;20458;-56
2021/07/18 05:28:49;;;;;;;11.50;10.80;;;24.10;99.90;;;;;;3545278;40;20664;-53
2021/07/18 05:31:17;;;;;;;13.17;12.17;;;24.10;99.90;;;;;;3534746;40;20491;-55
2021/07/18 05:33:44;;;;;;;12.30;11.50;;;24.10;99.90;;;;;;3544335;40;20470;-54
2021/07/18 05:36:11;;;;;;;12.27;11.47;;;24.10;99.90;;;;;;3545670;40;20450;-57
2021/07/18 05:38:40;;;;;;;12.97;12.10;;;24.10;99.90;;;;;;3545503;40;20466;-57
2021/07/18 05:41:07;;;;;;;12.43;11.63;;;24.10;99.90;;;;;;3545379;40;20482;-57
2021/07/18 05:43:35;;;;;;;12.33;11.53;;;24.10;99.90;;;;;;3544994;40;20458;-54
2021/07/18 05:46:02;;;;;;;11.27;10.57;;;24.10;99.90;;;;;;3545497;40;20462;-57
2021/07/18 05:48:31;;;;;;;11.97;11.27;;;24.10;99.90;;;;;;3545332;40;20504;-57
2021/07/18 05:50:58;;;;;;;12.90;12.00;;;24.10;99.90;;;;;;3544000;40;20475;-58
2021/07/18 05:53:25;;;;;;;11.73;11.03;;;24.10;99.90;;;;;;3543598;40;20828;-57
2021/07/18 05:55:54;;;;;;;11.53;10.83;;;24.10;99.90;;;;;;3545468;40;20454;-57
2021/07/18 05:58:21;;;;;;;12.60;11.80;;;24.10;99.90;;;;;;3545716;40;20466;-57
2021/07/18 06:00:48;;;;;;;12.80;11.90;;;24.10;99.90;;;;;;3544817;40;20469;-55
2021/07/18 06:03:15;;;;;;;11.60;10.90;;;24.10;99.90;;;;;;3545332;40;20474;-56
2021/07/18 06:05:43;;;;;;;11.60;10.90;;;24.10;99.90;;;;;;3545506;40;20461;-57
2021/07/18 06:08:10;;;;;;;11.70;10.93;;;24.10;99.90;;;;;;3545493;40;20454;-55
2021/07/18 06:10:37;;;;;;;12.20;11.40;;;24.10;99.90;;;;;;3544892;40;20458;-56
2021/07/18 06:13:06;;;;;;;13.00;12.20;;;24.10;99.90;;;;;;3545526;40;20559;-57
2021/07/18 06:15:33;;;;;;;12.63;11.63;;;24.10;99.90;;;;;;3544496;40;20458;-56
2021/07/18 06:18:00;;;;;;;12.70;11.80;;;24.10;99.90;;;;;;3545041;40;20509;-55
2021/07/18 06:20:28;;;;;;;13.10;12.10;;;24.10;99.90;;;;;;3545111;40;20473;-57
2021/07/18 06:22:55;;;;;;;13.07;12.07;;;24.10;99.90;;;;;;3545003;40;20473;-58
2021/07/18 06:25:22;;;;;;;12.40;11.40;;;24.10;99.90;;;;;;3542561;40;20518;-57
2021/07/18 06:27:49;;;;;;;13.13;11.90;;;24.10;99.90;;;;;;3542495;40;20474;-55
2021/07/18 06:30:18;;;;;;;12.37;11.47;;;24.10;99.90;;;;;;3539909;40;20478;-56
2021/07/18 06:32:45;;;;;;;11.87;11.07;;;24.10;99.90;;;;;;3541072;40;20490;-57
2021/07/18 06:35:13;;;;;;;13.03;11.80;;;24.20;99.90;;;;;;3541152;40;20544;-57
2021/07/18 06:37:40;;;;;;;13.93;12.90;;;24.20;99.90;;;;;;3542039;40;20813;-57
2021/07/18 06:40:10;;;;;;;12.97;12.10;;;24.20;99.90;;;;;;3541717;40;20481;-56
2021/07/18 06:42:37;;;;;;;12.53;11.73;;;24.20;99.90;;;;;;3542061;40;20883;-56
2021/07/18 06:45:06;;;;;;;12.83;11.93;;;24.20;99.90;;;;;;3542605;40;20489;-56
2021/07/18 06:47:35;;;;;;;12.80;11.90;;;24.20;99.90;;;;;;3544043;40;20484;-57
2021/07/18 06:50:02;;;;;;;12.83;11.83;;;24.20;99.90;;;;;;3543297;40;21214;-56
2021/07/18 06:52:29;;;;;;;13.17;12.30;;;24.20;99.90;;;;;;3542611;40;20449;-56
2021/07/18 06:54:57;;;;;;;11.90;11.00;;;24.20;99.90;;;;;;3543554;40;20591;-57
2021/07/18 06:57:24;;;;;;;11.70;10.90;;;24.20;99.90;;;;;;3542857;40;20469;-56
2021/07/18 06:59:51;;;;;;;12.33;11.40;;;24.20;99.90;;;;;;3543281;40;20489;-57
2021/07/18 07:02:18;;;;;;;10.90;10.10;;;24.20;99.90;;;;;;3543760;40;20509;-57
2021/07/18 07:04:47;;;;;;;11.57;10.67;;;24.20;99.90;;;;;;3542516;40;20869;-54
2021/07/18 07:07:14;;;;;;;10.80;10.00;;;24.20;99.90;;;;;;3543372;40;20474;-56
2021/07/18 07:09:42;;;;;;;11.13;10.40;;;24.20;99.90;;;;;;3541809;40;20516;-56
2021/07/18 07:12:10;;;;;;;11.00;10.30;;;24.20;99.90;;;;;;3531618;40;20635;-55
2021/07/18 07:14:37;;;;;;;10.03;9.30;;;24.20;99.90;;;;;;3541524;40;20505;-56
2021/07/18 07:17:05;;;;;;;10.83;9.80;;;24.20;99.90;;;;;;3543485;40;20466;-56
2021/07/18 07:19:33;;;;;;;10.63;9.93;;;24.20;99.90;;;;;;3542190;40;20784;-56
2021/07/18 07:22:01;;;;;;;8.23;7.80;;;24.20;99.90;;;;;;3541622;40;20525;-58
2021/07/18 07:24:28;;;;;;;9.77;8.77;;;24.20;99.90;;;;;;3543121;40;20804;-58
2021/07/18 07:26:56;;;;;;;8.50;7.70;;;24.10;99.90;;;;;;3543309;40;20481;-58
2021/07/18 07:29:23;;;;;;;9.03;7.87;;;24.00;99.90;;;;;;3543001;40;20458;-55
2021/07/18 07:31:50;;;;;;;7.73;7.20;;;23.90;99.90;;;;;;3542363;40;21293;-57
2021/07/18 07:34:17;;;;;;;8.83;7.83;;;23.90;99.90;;;;;;3540387;40;20492;-57
2021/07/18 07:36:45;;;;;;;13.53;7.90;;;23.90;99.90;;;;;;3531582;40;20565;-59
2021/07/18 07:39:14;;;;;;;7.97;7.30;;;23.80;99.90;;;;;;3541594;40;20576;-58
2021/07/18 07:41:41;;;;;;;8.10;7.50;;;23.80;99.90;;;;;;3540704;40;20466;-59
2021/07/18 07:44:09;;;;;;;7.87;7.27;;;23.80;99.90;;;;;;3541472;40;21217;-59
2021/07/18 07:46:36;;;;;;;8.50;7.80;;;23.80;99.90;;;;;;3541031;40;20891;-59
2021/07/18 07:49:04;;;;;;;7.47;6.93;;;23.80;99.90;;;;;;3540992;40;20493;-58
2021/07/18 07:51:31;;;;;;;8.90;8.30;;;23.80;99.90;;;;;;3540853;40;20556;-57
2021/07/18 07:53:58;;;;;;;8.90;8.20;;;23.80;99.90;;;;;;3542249;40;20778;-58
2021/07/18 07:56:27;;;;;;;8.30;7.80;;;23.80;99.90;;;;;;3541326;40;20458;-59
2021/07/18 07:58:54;;;;;;;7.60;6.90;;;23.90;99.90;;;;;;3541409;40;20935;-59
2021/07/18 08:01:21;;;;;;;8.30;7.60;;;23.90;99.90;;;;;;3541608;40;20526;-59
2021/07/18 08:03:49;;;;;;;8.27;7.70;;;23.90;99.90;;;;;;3542230;40;20580;-58
2021/07/18 08:06:16;;;;;;;8.93;8.07;;;23.90;99.90;;;;;;3531268;40;21039;-58
2021/07/18 08:08:43;;;;;;;8.13;7.73;;;23.90;99.90;;;;;;3539712;40;20469;-59
2021/07/18 08:11:11;;;;;;;7.83;7.40;;;23.90;99.90;;;;;;3540202;40;20537;-59
2021/07/18 08:13:40;;;;;;;8.13;7.60;;;24.00;99.90;;;;;;3541830;40;20462;-57
2021/07/18 08:16:08;;;;;;;8.23;7.73;;;24.00;99.90;;;;;;3539283;40;20568;-59
2021/07/18 08:18:40;;;;;;;8.77;8.13;;;24.00;99.90;;;;;;3538345;40;20474;-59
2021/07/18 08:21:09;;;;;;;10.17;8.43;;;24.10;99.90;;;;;;3539800;40;20498;-58
2021/07/18 08:23:39;;;;;;;9.20;8.60;;;24.10;99.90;;;;;;3540391;40;20457;-58
2021/07/18 08:26:07;;;;;;;8.23;7.73;;;24.20;99.90;;;;;;3539616;40;20462;-58
2021/07/18 08:28:38;;;;;;;8.87;8.27;;;24.20;99.90;;;;;;3535454;40;20488;-59
2021/07/18 08:31:07;;;;;;;8.20;7.57;;;24.20;99.90;;;;;;3545550;40;20685;-58
2021/07/18 08:33:36;;;;;;;8.33;7.70;;;24.20;99.90;;;;;;3545810;40;20464;-57
2021/07/18 08:36:03;;;;;;;8.43;7.83;;;24.20;99.90;;;;;;3547489;40;20497;-58
2021/07/18 08:38:31;;;;;;;8.03;7.53;;;24.20;99.90;;;;;;3549007;40;20702;-59
2021/07/18 08:40:59;;;;;;;8.77;8.27;;;24.20;99.90;;;;;;3533140;40;21622;-57
2021/07/18 08:43:32;;;;;;;9.03;8.20;;;24.30;99.90;;;;;;3543804;40;20482;-58
2021/07/18 08:46:01;;;;;;;8.80;8.20;;;24.30;99.90;;;;;;3540425;40;20492;-57
2021/07/18 08:48:31;;;;;;;8.20;7.70;;;24.30;99.90;;;;;;3541496;40;20458;-58
2021/07/18 08:51:00;;;;;;;8.17;7.57;;;24.30;99.90;;;;;;3543214;40;20458;-58
2021/07/18 08:53:28;;;;;;;9.30;8.23;;;24.30;99.90;;;;;;3544101;40;20481;-56
2021/07/18 08:55:56;;;;;;;12.80;8.43;;;24.30;99.90;;;;;;3543368;40;20833;-57
2021/07/18 08:58:23;;;;;;;8.57;7.97;;;24.30;99.90;;;;;;3543777;40;20454;-57
2021/07/18 09:00:52;;;;;;;10.73;8.47;;;24.30;99.90;;;;;;3525864;40;20485;-57
2021/07/18 09:03:19;;;;;;;9.07;8.43;;;24.30;99.90;;;;;;3541179;40;20576;-56
2021/07/18 09:05:52;;;;;;;9.03;8.40;;;24.30;99.90;;;;;;3540833;40;20917;-57
2021/07/18 09:08:22;;;;;;;10.10;9.40;;;24.40;99.90;;;;;;3541108;40;20477;-57
2021/07/18 09:10:53;;;;;;;9.73;8.93;;;24.30;99.90;;;;;;3543010;40;20509;-57
2021/07/18 09:13:21;;;;;;;9.20;8.50;;;24.30;99.90;;;;;;3543376;40;20544;-57
2021/07/18 09:15:52;;;;;;;9.40;8.60;;;24.30;99.90;;;;;;3544506;40;20484;-56
2021/07/18 09:18:22;;;;;;;10.53;9.53;;;24.40;99.90;;;;;;3543420;40;20457;-55
2021/07/18 09:20:54;;;;;;;9.00;8.33;;;24.40;99.90;;;;;;3533908;40;20478;-57
2021/07/18 09:23:25;;;;;;;9.53;8.10;;;24.40;99.90;;;;;;3540219;40;20476;-58
2021/07/18 09:26:18;;;;;;;8.30;7.67;;;24.30;99.90;;;;;;3543987;40;20462;-56
2021/07/18 09:28:45;;;;;;;9.03;8.47;;;24.30;99.90;;;;;;3543035;40;20477;-57
2021/07/18 09:31:29;;;;;;;9.53;8.70;;;24.30;99.90;;;;;;3532565;40;20510;-57
2021/07/18 09:34:12;;;;;;;9.33;8.73;;;24.40;99.90;;;;;;3544117;40;20462;-57
2021/07/18 09:36:42;;;;;;;12.10;10.40;;;24.40;99.90;;;;;;3542712;40;20485;-58
2021/07/18 09:39:13;;;;;;;13.43;9.53;;;24.40;99.90;;;;;;3534547;40;20481;-56
2021/07/18 09:41:44;;;;;;;11.20;10.10;;;24.40;99.90;;;;;;3544644;40;20529;-56
2021/07/18 09:44:12;;;;;;;8.77;8.07;;;24.40;99.90;;;;;;3543757;40;20454;-56
2021/07/18 09:46:39;;;;;;;9.70;8.90;;;24.40;99.90;;;;;;3542641;40;20469;-57
2021/07/18 09:49:07;;;;;;;13.53;9.43;;;24.30;99.90;;;;;;3543572;40;21299;-57
2021/07/18 09:51:36;;;;;;;8.93;8.20;;;24.40;99.90;;;;;;3543540;40;20453;-57
2021/07/18 09:54:12;;;;;;;15.37;8.97;;;24.40;99.90;;;;;;3545400;40;20487;-56
2021/07/18 09:56:42;;;;;;;10.37;9.33;;;24.40;99.90;;;;;;3547073;40;21162;-56
2021/07/18 09:59:09;;;;;;;11.33;8.53;;;24.40;99.90;;;;;;3529889;40;20886;-57
2021/07/18 10:01:38;;;;;;;11.90;9.10;;;24.40;99.90;;;;;;3532594;40;20482;-57
2021/07/18 10:04:05;;;;;;;22.57;9.50;;;24.40;99.90;;;;;;3534389;40;20487;-57
2021/07/18 10:06:34;;;;;;;11.13;10.00;;;24.40;99.90;;;;;;3537981;40;20481;-56
2021/07/18 10:09:04;;;;;;;15.23;10.20;;;24.40;99.90;;;;;;3544434;40;20483;-56
2021/07/18 10:11:33;;;;;;;11.43;9.90;;;24.40;99.90;;;;;;3535610;40;20730;-56
2021/07/18 10:14:01;;;;;;;14.10;10.20;;;24.40;99.90;;;;;;3533609;40;20479;-56
2021/07/18 10:16:32;;;;;;;12.20;10.30;;;24.40;99.90;;;;;;3541239;40;20478;-56
2021/07/18 10:18:59;;;;;;;13.60;11.43;;;24.40;99.90;;;;;;3529409;40;20469;-56
2021/07/18 10:21:30;;;;;;;14.10;11.47;;;24.40;99.90;;;;;;3534153;40;20549;-57
2021/07/18 10:23:59;;;;;;;15.07;11.07;;;24.40;99.90;;;;;;3535642;40;20447;-56
2021/07/18 10:26:29;;;;;;;12.17;11.00;;;24.40;99.90;;;;;;3525675;40;20482;-57
2021/07/18 10:28:59;;;;;;;16.37;11.07;;;24.40;99.90;;;;;;3535980;40;20454;-56
2021/07/18 10:31:32;;;;;;;11.40;10.30;;;24.40;99.90;;;;;;3535163;40;20471;-56
2021/07/18 10:34:04;;;;;;;22.63;11.00;;;24.40;99.90;;;;;;3540782;40;20478;-56
2021/07/18 10:36:32;;;;;;;16.40;10.33;;;24.40;99.90;;;;;;3544795;40;21112;-56
2021/07/18 10:38:59;;;;;;;11.50;10.60;;;24.40;99.90;;;;;;3545333;40;20473;-57
2021/07/18 10:41:43;;;;;;;11.67;10.47;;;24.40;99.90;;;;;;3545492;40;20470;-57
2021/07/18 10:44:18;;;;;;;13.50;10.60;;;24.40;99.90;;;;;;3544682;40;20540;-56
2021/07/18 10:46:55;;;;;;;13.33;11.93;;;24.30;99.90;;;;;;3544389;40;20564;-57
2021/07/18 10:49:54;;;;;;;13.83;11.73;;;24.30;99.90;;;;;;3544922;40;20454;-56
2021/07/18 10:52:28;;;;;;;12.23;11.03;;;24.30;99.90;;;;;;3544431;40;20795;-56
2021/07/18 10:54:57;;;;;;;12.43;11.23;;;24.40;99.90;;;;;;3543609;40;20716;-56
2021/07/18 10:57:32;;;;;;;11.70;10.67;;;24.40;99.90;;;;;;3542927;40;20606;-57
2021/07/18 11:00:24;;;;;;;11.43;10.30;;;24.30;99.90;;;;;;3544305;40;20441;-57
2021/07/18 11:03:06;;;;;;;11.93;10.60;;;24.30;99.90;;;;;;3544610;40;20583;-56
2021/07/18 11:05:48;;;;;;;11.53;10.63;;;24.40;99.90;;;;;;3542161;40;20501;-58
2021/07/18 11:08:17;;;;;;;12.73;11.73;;;24.40;99.90;;;;;;3543410;40;20497;-57
2021/07/18 11:10:53;;;;;;;11.33;10.33;;;24.30;99.90;;;;;;3544416;40;20461;-57
2021/07/18 11:13:20;;;;;;;13.47;12.17;;;24.30;99.90;;;;;;3544109;40;20477;-57
2021/07/18 11:15:49;;;;;;;12.57;11.57;;;24.40;99.90;;;;;;3543256;40;20462;-56
2021/07/18 11:18:32;;;;;;;12.30;11.20;;;24.30;99.90;;;;;;3542424;40;20470;-56
2021/07/18 11:21:00;;;;;;;12.47;11.43;;;24.30;99.90;;;;;;3543199;40;20461;-57
2021/07/18 11:23:58;;;;;;;11.07;10.07;;;24.30;99.90;;;;;;3542695;40;20548;-57
2021/07/18 11:26:26;;;;;;;11.33;10.43;;;24.30;99.90;;;;;;3542528;40;20473;-56
2021/07/18 11:29:09;;;;;;;16.13;10.73;;;24.30;99.90;;;;;;3533561;40;21016;-56
2021/07/18 11:31:45;;;;;;;10.37;9.53;;;24.30;99.90;;;;;;3533883;40;20490;-57
2021/07/18 11:34:19;;;;;;;12.50;10.30;;;24.30;99.90;;;;;;3534069;40;20906;-57
2021/07/18 11:37:05;;;;;;;10.57;9.67;;;24.30;99.90;;;;;;3534244;40;20466;-57
2021/07/18 11:39:36;;;;;;;10.63;9.83;;;24.30;99.90;;;;;;3542459;40;20887;-57
2021/07/18 11:42:05;;;;;;;10.70;9.80;;;24.30;99.90;;;;;;3543522;40;20466;-56
2021/07/18 11:44:34;;;;;;;10.60;9.80;;;24.30;99.90;;;;;;3535829;40;20464;-57
2021/07/18 11:47:11;;;;;;;10.10;9.20;;;24.30;99.90;;;;;;3543547;40;20563;-57
2021/07/18 11:49:45;;;;;;;11.13;10.23;;;24.30;99.90;;;;;;3543560;40;20569;-56
2021/07/18 11:52:17;;;;;;;10.50;9.50;;;24.30;99.90;;;;;;3543297;40;20592;-56
2021/07/18 11:54:46;;;;;;;9.97;9.23;;;24.30;99.90;;;;;;3540405;40;20461;-56
2021/07/18 11:57:15;;;;;;;9.30;8.70;;;24.30;99.90;;;;;;3540371;40;20474;-56
2021/07/18 11:59:43;;;;;;;10.33;9.43;;;24.30;99.90;;;;;;3543476;40;20968;-56
2021/07/18 12:02:14;;;;;;;9.60;8.87;;;24.30;99.90;;;;;;3542815;40;20478;-56
2021/07/18 12:04:43;;;;;;;11.37;10.53;;;24.30;99.90;;;;;;3543577;40;20476;-56
2021/07/18 12:07:11;;;;;;;10.73;9.80;;;24.30;99.90;;;;;;3542997;40;20488;-57
2021/07/18 12:09:42;;;;;;;9.97;9.37;;;24.30;99.90;;;;;;3543301;40;20544;-57
2021/07/18 12:12:12;;;;;;;10.80;10.00;;;24.30;99.90;;;;;;3543204;40;20488;-57
2021/07/18 12:14:41;;;;;;;10.43;9.50;;;24.30;99.90;;;;;;3543213;40;20778;-55
2021/07/18 12:17:13;;;;;;;11.43;10.43;;;24.30;99.90;;;;;;3541545;40;20501;-56
2021/07/18 12:19:43;;;;;;;9.93;9.13;;;24.30;99.90;;;;;;3543983;40;20465;-56
2021/07/18 12:22:14;;;;;;;10.00;9.40;;;24.30;99.90;;;;;;3541871;40;20481;-56
2021/07/18 12:24:48;;;;;;;9.50;8.90;;;24.30;99.90;;;;;;3542134;40;20485;-56
2021/07/18 12:27:16;;;;;;;10.27;9.60;;;24.30;99.90;;;;;;3543759;40;20482;-54
2021/07/18 12:29:50;;;;;;;9.80;9.13;;;24.30;99.90;;;;;;3544455;40;20454;-57
2021/07/18 12:32:19;;;;;;;9.87;9.27;;;24.30;99.90;;;;;;3544227;40;20524;-56
2021/07/18 12:34:51;;;;;;;10.30;9.60;;;24.30;99.90;;;;;;3544019;40;20564;-57
2021/07/18 12:37:20;;;;;;;10.43;9.67;;;24.30;99.90;;;;;;3543479;40;21412;-56
2021/07/18 12:39:49;;;;;;;9.90;9.23;;;24.30;99.90;;;;;;3534509;40;21049;-56